Los Saenz, Texas
Current Conditions -  °F | °C
As of 12:15 PM on Thursday 27 Nov 2014 (Local Time) from KAPY Reporting Station
Clear Clear  
Wind Chill: 72°   Ceiling: Unl
Heat Index: 72°   Visibility: 10mi
Dew Point: 44°   Wind: 6mph
Humidity: 36%   Direction: 160°SSE
Pressure: 30.4"   Gusts: NA
Location:  26.5818°N, 98.985°W
Report Text: KAPY 271815Z AUTO 16005KT 10SM CLR 22/06 A3040 RMK AO2 T02210065
Loading
Personal Weather Stations






























Interactive Weather Map New forecast layout! Learn more

10-Day Weather Forecast

Advertisements
Track Severe Weather on mobile